Time;durP1;ratioP1;P1;durP2;ratioP2;P2;SDS_P1;SDS_P2;PMS_P1;PMS_P2;Temp;Humidity;BMP_temperature;BMP_pressure;BME280_temperature;BME280_humidity;BME280_pressure;Samples;Min_cycle;Max_cycle;Signal;HPM_P1;HPM_P2
2022/09/30 00:01:49;;;;;;;14.70;9.53;;;;;;;5.59;100.00;95365.44;5027145;28;20486;-75
2022/09/30 00:04:18;;;;;;;27.07;9.63;;;;;;;5.45;100.00;95371.19;5020615;28;20037;-75
2022/09/30 00:06:44;;;;;;;16.80;10.20;;;;;;;5.34;100.00;95374.03;5023031;28;20113;-73
2022/09/30 00:09:11;;;;;;;17.03;9.40;;;;;;;5.30;100.00;95376.09;5026651;28;20044;-74
2022/09/30 00:11:38;;;;;;;13.90;9.53;;;;;;;5.30;100.00;95381.31;5016516;28;20037;-73
2022/09/30 00:14:05;;;;;;;14.57;10.80;;;;;;;5.33;100.00;95377.56;5018682;28;20029;-74
2022/09/30 00:16:34;;;;;;;13.57;10.10;;;;;;;5.34;100.00;95385.25;5012149;28;20030;-74
2022/09/30 00:19:00;;;;;;;13.43;9.70;;;;;;;5.30;100.00;95383.94;5027547;28;20093;-74
2022/09/30 00:21:29;;;;;;;14.53;9.80;;;;;;;5.25;100.00;95380.13;5022541;28;20030;-74
2022/09/30 00:23:55;;;;;;;12.73;9.43;;;;;;;5.23;100.00;95380.28;5022456;28;20475;-74
2022/09/30 00:26:22;;;;;;;14.03;9.67;;;;;;;5.17;100.00;95373.03;5026955;28;20034;-74
2022/09/30 00:28:50;;;;;;;15.63;9.83;;;;;;;5.12;100.00;95370.03;5032985;28;20089;-74
2022/09/30 00:31:18;;;;;;;13.67;10.73;;;;;;;5.10;100.00;95361.56;5029875;28;20043;-74
2022/09/30 00:34:05;;;;;;;15.07;9.63;;;;;;;5.10;100.00;95361.56;5016717;28;20021;-74
2022/09/30 00:36:44;;;;;;;13.97;10.53;;;;;;;5.11;100.00;95363.19;5013421;28;20069;-74
2022/09/30 00:39:22;;;;;;;13.03;9.10;;;;;;;5.17;100.00;95378.25;5030366;28;20133;-74
2022/09/30 00:41:51;;;;;;;11.27;8.07;;;;;;;5.20;100.00;95380.56;5026359;28;20112;-75
2022/09/30 00:44:44;;;;;;;12.13;8.10;;;;;;;5.16;100.00;95384.41;5023217;28;20040;-74
2022/09/30 00:47:32;;;;;;;11.93;8.43;;;;;;;5.01;100.00;95384.09;5021766;28;20037;-74
2022/09/30 00:50:03;;;;;;;10.60;7.50;;;;;;;5.03;100.00;95386.53;5013355;28;20064;-73
2022/09/30 00:52:31;;;;;;;14.70;8.40;;;;;;;4.97;100.00;95393.19;5020658;28;20482;-73
2022/09/30 00:55:03;;;;;;;11.87;8.30;;;;;;;4.95;100.00;95395.91;5010971;28;20689;-75
2022/09/30 00:57:29;;;;;;;12.60;7.60;;;;;;;4.97;100.00;95395.78;5009952;28;20108;-74
2022/09/30 00:59:55;;;;;;;10.60;8.10;;;;;;;4.97;100.00;95391.38;5005538;28;20524;-73
2022/09/30 01:02:22;;;;;;;11.97;8.20;;;;;;;4.96;100.00;95394.13;4993017;28;20045;-74
2022/09/30 01:04:47;;;;;;;11.43;8.20;;;;;;;4.99;100.00;95398.22;5019963;28;20030;-74
2022/09/30 01:07:14;;;;;;;13.17;8.70;;;;;;;4.95;100.00;95408.13;5011594;28;20029;-74
2022/09/30 01:09:42;;;;;;;12.90;8.50;;;;;;;4.83;100.00;95402.31;5023391;28;20041;-74
2022/09/30 01:12:22;;;;;;;18.93;10.20;;;;;;;4.81;100.00;95388.59;5016652;28;20033;-74
2022/09/30 01:14:52;;;;;;;14.03;9.50;;;;;;;4.71;100.00;95393.84;5010226;28;20025;-74
2022/09/30 01:17:27;;;;;;;13.80;10.07;;;;;;;4.63;100.00;95393.75;5013312;28;20037;-75
2022/09/30 01:20:29;;;;;;;12.30;8.80;;;;;;;4.59;100.00;95404.56;4994937;28;20513;-73
2022/09/30 01:23:13;;;;;;;13.90;9.23;;;;;;;4.58;100.00;95402.94;5040655;28;20037;-74
2022/09/30 01:26:33;;;;;;;12.98;9.20;;;;;;;4.56;100.00;95410.06;5016906;28;20037;-74
2022/09/30 01:29:17;;;;;;;14.17;8.80;;;;;;;4.64;100.00;95412.78;5018108;28;20049;-74
2022/09/30 01:31:48;;;;;;;13.77;8.80;;;;;;;4.58;100.00;95411.56;5035485;28;20076;-73
2022/09/30 01:34:16;;;;;;;12.73;8.47;;;;;;;4.65;100.00;95423.06;5030850;28;20083;-74
2022/09/30 01:36:48;;;;;;;12.00;7.90;;;;;;;4.64;100.00;95429.22;5020499;28;20035;-74
2022/09/30 01:39:32;;;;;;;11.93;8.03;;;;;;;4.50;100.00;95419.28;5026117;28;20057;-74
2022/09/30 01:42:00;;;;;;;;;;;;;;;4.42;100.00;95419.16;5020643;28;20056;-74
2022/09/30 01:44:46;;;;;;;11.60;7.83;;;;;;;4.48;100.00;95419.41;5021152;28;19940;-74
2022/09/30 01:47:18;;;;;;;10.97;7.97;;;;;;;4.49;100.00;95415.88;5018665;28;20055;-73
2022/09/30 01:50:00;;;;;;;14.97;8.23;;;;;;;4.40;100.00;95414.09;5001717;28;20038;-73
2022/09/30 01:52:39;;;;;;;10.37;7.47;;;;;;;4.33;100.00;95420.84;5001603;28;20034;-74
2022/09/30 01:55:23;;;;;;;15.50;8.30;;;;;;;4.31;100.00;95409.72;5012720;28;20037;-74
2022/09/30 01:58:07;;;;;;;11.48;8.15;;;;;;;4.23;100.00;95399.22;5001310;28;20095;-73
2022/09/30 02:00:38;;;;;;;10.30;7.20;;;;;;;4.31;100.00;95406.31;5024400;28;20533;-73
2022/09/30 02:03:30;;;;;;;9.07;6.90;;;;;;;4.27;100.00;95410.97;5019224;28;20099;-74
2022/09/30 02:06:09;;;;;;;8.50;5.87;;;;;;;4.19;100.00;95423.84;5011591;28;20042;-74
2022/09/30 02:08:45;;;;;;;9.73;6.33;;;;;;;4.12;100.00;95413.19;5011648;28;20041;-74
2022/09/30 02:11:26;;;;;;;7.90;5.87;;;;;;;4.19;100.00;95416.91;5006566;28;20067;-73
2022/09/30 02:14:38;;;;;;;11.77;5.57;;;;;;;4.09;100.00;95423.91;5018407;28;20029;-74
2022/09/30 02:17:16;;;;;;;10.87;6.30;;;;;;;3.98;100.00;95432.66;5009841;28;20530;-74
2022/09/30 02:19:44;;;;;;;10.77;6.57;;;;;;;3.95;100.00;95430.31;5013436;28;20034;-74
2022/09/30 02:22:21;;;;;;;9.00;6.23;;;;;;;3.98;100.00;95437.84;5013486;28;20510;-74
2022/09/30 02:24:51;;;;;;;9.50;6.60;;;;;;;4.05;100.00;95438.13;5017750;28;20034;-74
2022/09/30 02:27:26;;;;;;;10.00;5.93;;;;;;;3.88;100.00;95441.44;5009793;28;20056;-74
2022/09/30 02:29:57;;;;;;;8.60;5.93;;;;;;;3.85;100.00;95442.50;5011654;28;20041;-74
2022/09/30 02:32:27;;;;;;;8.20;5.23;;;;;;;3.94;100.00;95446.09;5012542;28;20048;-73
2022/09/30 02:35:05;;;;;;;8.43;5.80;;;;;;;3.94;100.00;95436.50;5025391;28;20030;-74
2022/09/30 02:37:35;;;;;;;9.10;5.90;;;;;;;3.79;100.00;95440.50;5045026;28;20645;-74
2022/09/30 02:40:15;;;;;;;26.83;7.03;;;;;;;3.68;100.00;95446.63;5025414;28;20052;-74
2022/09/30 02:42:44;;;;;;;14.37;6.40;;;;;;;3.63;100.00;95442.81;5023248;28;20077;-74
2022/09/30 02:45:15;;;;;;;17.03;6.50;;;;;;;3.61;100.00;95447.31;5039304;28;20054;-74
2022/09/30 02:47:46;;;;;;;21.73;6.93;;;;;;;3.51;100.00;95442.09;5023151;28;20029;-74
2022/09/30 02:50:34;;;;;;;21.97;7.73;;;;;;;3.52;100.00;95451.53;5023580;28;20038;-73
2022/09/30 02:53:27;;;;;;;15.43;6.90;;;;;;;3.56;100.00;95447.72;5024281;28;20038;-73
2022/09/30 02:56:02;;;;;;;30.40;6.65;;;;;;;3.49;100.00;95454.44;5011666;28;20112;-74
2022/09/30 02:58:29;;;;;;;23.73;6.43;;;;;;;3.39;100.00;95456.19;5009554;28;20038;-74
2022/09/30 03:00:56;;;;;;;19.63;6.53;;;;;;;3.35;100.00;95449.59;5049221;28;20049;-74
2022/09/30 03:03:34;;;;;;;29.10;6.83;;;;;;;3.26;100.00;95451.25;5020664;28;20081;-74
2022/09/30 03:06:00;;;;;;;14.57;6.80;;;;;;;3.24;100.00;95453.13;4995726;28;20056;-74
2022/09/30 03:08:25;;;;;;;33.33;6.50;;;;;;;3.28;100.00;95449.31;5005470;28;20738;-74
2022/09/30 03:10:51;;;;;;;23.17;7.43;;;;;;;3.34;100.00;95458.34;5019884;28;20037;-74
2022/09/30 03:13:20;;;;;;;33.37;7.43;;;;;;;3.34;100.00;95456.56;5024349;28;20111;-75
2022/09/30 03:15:45;;;;;;;18.50;7.77;;;;;;;3.29;100.00;95457.00;5013967;28;20108;-74
2022/09/30 03:18:48;;;;;;;27.97;8.47;;;;;;;3.37;100.00;95458.91;5011993;28;20177;-74
2022/09/30 03:21:42;;;;;;;130.87;13.93;;;;;;;3.11;100.00;95471.56;5011588;28;20049;-74
2022/09/30 03:24:17;;;;;;;;;;;;;;;3.13;100.00;95474.84;5020807;28;20037;-74
2022/09/30 03:26:54;;;;;;;15.37;7.27;;;;;;;3.03;100.00;95472.22;5053353;28;19940;-74
2022/09/30 03:29:29;;;;;;;16.13;6.33;;;;;;;2.99;100.00;95481.25;5009734;28;20526;-74
2022/09/30 03:32:10;;;;;;;27.57;7.33;;;;;;;3.07;100.00;95486.59;5011709;28;20104;-74
2022/09/30 03:34:57;;;;;;;25.93;8.47;;;;;;;3.07;100.00;95496.97;5022042;28;20037;-74
2022/09/30 03:37:50;;;;;;;31.20;7.73;;;;;;;3.17;100.00;95498.78;5016181;28;20040;-74
2022/09/30 03:40:31;;;;;;;27.23;7.97;;;;;;;3.19;100.00;95497.72;5001654;28;20419;-73
2022/09/30 03:43:17;;;;;;;34.47;8.03;;;;;;;3.22;100.00;95507.00;5025943;28;20061;-74
2022/09/30 03:46:14;;;;;;;20.17;8.10;;;;;;;3.23;100.00;95504.28;5019265;28;20041;-74
2022/09/30 03:48:42;;;;;;;20.87;8.30;;;;;;;3.22;100.00;95501.81;5010153;28;20451;-74
2022/09/30 03:51:08;;;;;;;17.50;7.83;;;;;;;3.16;100.00;95497.97;5053735;28;20097;-74
2022/09/30 03:53:41;;;;;;;29.07;8.27;;;;;;;3.16;100.00;95515.34;5023908;28;20072;-75
2022/09/30 03:56:07;;;;;;;20.48;7.30;;;;;;;3.18;100.00;95514.22;5028442;28;20030;-74
2022/09/30 03:58:43;;;;;;;13.57;7.00;;;;;;;3.18;100.00;95510.81;4998292;28;20050;-74
2022/09/30 04:01:18;;;;;;;14.33;6.37;;;;;;;3.06;100.00;95510.09;5037397;28;20058;-74
2022/09/30 04:03:44;;;;;;;10.90;6.00;;;;;;;2.97;100.00;95519.50;5019543;28;20033;-74
2022/09/30 04:06:12;;;;;;;11.30;6.03;;;;;;;2.91;100.00;95517.41;5022062;28;20120;-74
2022/09/30 04:08:38;;;;;;;10.47;5.90;;;;;;;2.83;100.00;95518.06;5027355;28;20111;-74
2022/09/30 04:11:04;;;;;;;11.90;6.40;;;;;;;2.84;100.00;95524.06;5026457;28;20065;-74
2022/09/30 04:13:30;;;;;;;13.63;7.57;;;;;;;2.70;100.00;95527.00;5021344;28;20037;-73
2022/09/30 04:15:56;;;;;;;57.83;9.33;;;;;;;2.56;100.00;95526.38;4997511;28;20427;-74
2022/09/30 04:18:21;;;;;;;14.30;6.67;;;;;;;2.52;100.00;95535.38;5025573;28;20076;-73
2022/09/30 04:20:47;;;;;;;27.93;7.17;;;;;;;2.47;100.00;95516.75;5051552;28;20041;-74
2022/09/30 04:23:13;;;;;;;19.63;8.50;;;;;;;2.56;100.00;95516.00;5021217;28;20180;-74
2022/09/30 04:25:38;;;;;;;46.30;9.80;;;;;;;2.47;100.00;95532.34;5025467;28;20112;-74
2022/09/30 04:28:04;;;;;;;72.43;11.37;;;;;;;2.50;100.00;95532.09;5024130;28;20037;-74
2022/09/30 04:30:30;;;;;;;91.00;11.83;;;;;;;2.47;100.00;95531.53;5018290;28;20040;-73
2022/09/30 04:32:56;;;;;;;37.23;8.87;;;;;;;2.59;100.00;95536.53;5016912;28;20037;-74
2022/09/30 04:35:22;;;;;;;117.47;11.77;;;;;;;2.41;100.00;95532.03;4996545;28;20026;-74
2022/09/30 04:37:48;;;;;;;199.63;16.43;;;;;;;2.28;100.00;95537.38;5022547;28;20101;-73
2022/09/30 04:40:15;;;;;;;109.83;11.17;;;;;;;2.29;100.00;95544.25;5021103;28;20121;-73
2022/09/30 04:42:41;;;;;;;247.27;17.17;;;;;;;2.07;100.00;95543.38;5023759;28;20494;-73
2022/09/30 04:45:12;;;;;;;169.53;14.73;;;;;;;2.08;100.00;95542.44;5022964;28;20033;-73
2022/09/30 04:47:42;;;;;;;122.57;11.97;;;;;;;2.01;100.00;95543.91;5022479;28;20071;-73
2022/09/30 04:50:09;;;;;;;46.13;8.23;;;;;;;2.16;100.00;95556.56;5020785;28;20104;-73
2022/09/30 04:52:34;;;;;;;70.57;10.77;;;;;;;2.02;100.00;95553.31;5024129;28;20371;-74
2022/09/30 04:55:00;;;;;;;59.50;9.37;;;;;;;2.07;100.00;95550.34;5016149;28;20117;-73
2022/09/30 04:57:26;;;;;;;62.80;10.17;;;;;;;2.00;100.00;95552.59;5021499;28;20033;-73
2022/09/30 04:59:52;;;;;;;39.03;8.83;;;;;;;2.08;100.00;95552.81;5027664;28;20486;-73
2022/09/30 05:02:18;;;;;;;24.70;7.90;;;;;;;2.12;100.00;95550.81;5002960;28;20046;-74
2022/09/30 05:04:44;;;;;;;25.10;7.67;;;;;;;2.08;100.00;95558.00;5038444;28;20036;-73
2022/09/30 05:07:10;;;;;;;10.33;7.37;;;;;;;2.19;100.00;95553.72;5035945;28;20479;-73
2022/09/30 05:09:35;;;;;;;11.37;7.20;;;;;;;2.20;100.00;95551.00;5003547;28;20151;-73
2022/09/30 05:12:02;;;;;;;16.67;9.67;;;;;;;2.25;100.00;95550.63;5013136;28;20073;-73
2022/09/30 05:14:29;;;;;;;15.57;8.80;;;;;;;2.30;100.00;95551.06;5019624;28;20030;-73
2022/09/30 05:16:55;;;;;;;15.17;7.03;;;;;;;2.16;100.00;95559.16;5020106;28;20033;-73
2022/09/30 05:19:21;;;;;;;10.83;6.73;;;;;;;2.29;100.00;95560.63;5019309;28;20057;-73
2022/09/30 05:21:47;;;;;;;25.97;7.30;;;;;;;2.24;100.00;95561.94;5017819;28;20046;-73
2022/09/30 05:24:13;;;;;;;10.60;6.27;;;;;;;2.36;100.00;95566.13;5020779;28;20033;-72
2022/09/30 05:26:39;;;;;;;22.63;14.17;;;;;;;2.33;100.00;95571.56;5025560;28;20034;-73
2022/09/30 05:29:05;;;;;;;19.90;14.00;;;;;;;2.44;100.00;95576.69;5010326;28;20037;-73
2022/09/30 05:31:31;;;;;;;11.93;7.83;;;;;;;2.46;100.00;95576.59;5009115;28;20061;-74
2022/09/30 05:33:57;;;;;;;8.93;6.00;;;;;;;2.43;100.00;95577.66;5019200;28;20094;-73
2022/09/30 05:36:22;;;;;;;12.53;8.43;;;;;;;2.38;100.00;95578.97;5018690;28;20025;-72
2022/09/30 05:38:52;;;;;;;9.90;6.57;;;;;;;2.39;100.00;95586.66;5020737;28;20038;-73
2022/09/30 05:41:19;;;;;;;8.33;5.93;;;;;;;2.49;100.00;95582.34;5027666;28;20052;-73
2022/09/30 05:43:46;;;;;;;10.20;6.53;;;;;;;2.66;100.00;95582.75;5025642;28;20064;-73
2022/09/30 05:46:13;;;;;;;10.77;7.80;;;;;;;2.74;100.00;95588.13;5028217;28;20108;-73
2022/09/30 05:48:39;;;;;;;11.03;5.70;;;;;;;2.87;100.00;95585.31;5025339;28;20037;-73
2022/09/30 05:51:06;;;;;;;8.63;5.80;;;;;;;3.15;100.00;95586.41;5017033;28;20487;-73
2022/09/30 05:53:33;;;;;;;8.80;6.00;;;;;;;3.65;100.00;95589.91;5003399;28;20375;-73
2022/09/30 05:55:59;;;;;;;10.27;6.90;;;;;;;4.00;100.00;95589.44;5024169;28;20105;-73
2022/09/30 05:58:26;;;;;;;7.43;5.17;;;;;;;4.06;100.00;95584.63;5026553;28;20113;-73
2022/09/30 06:00:52;;;;;;;11.50;5.17;;;;;;;4.17;100.00;95582.75;5018579;28;20052;-73
2022/09/30 06:03:18;;;;;;;7.30;4.93;;;;;;;4.38;100.00;95579.19;5003480;28;20037;-72
2022/09/30 06:05:44;;;;;;;7.37;5.17;;;;;;;4.60;100.00;95570.28;5014882;28;20572;-74
2022/09/30 06:08:11;;;;;;;6.50;4.20;;;;;;;5.11;100.00;95569.91;5005470;28;20029;-74
2022/09/30 06:10:40;;;;;;;6.17;3.97;;;;;;;5.52;100.00;95559.19;5028971;28;20060;-74
2022/09/30 06:13:07;;;;;;;6.00;4.13;;;;;;;5.76;100.00;95548.19;5044994;28;20057;-73
2022/09/30 06:15:33;;;;;;;6.67;4.20;;;;;;;5.70;100.00;95557.44;5006240;28;20087;-73
2022/09/30 06:17:59;;;;;;;7.70;4.47;;;;;;;5.73;100.00;95556.31;5019677;28;20072;-74
2022/09/30 06:20:25;;;;;;;6.53;3.53;;;;;;;5.85;100.00;95553.38;5020227;28;20060;-74
2022/09/30 06:22:51;;;;;;;6.17;3.87;;;;;;;6.53;100.00;95549.47;5007936;28;20065;-73
2022/09/30 06:25:17;;;;;;;6.27;3.80;;;;;;;5.61;100.00;95568.75;5027036;28;20045;-74
2022/09/30 06:27:45;;;;;;;6.63;4.73;;;;;;;5.33;100.00;95575.72;5043113;28;20042;-73
2022/09/30 06:30:11;;;;;;;6.33;4.30;;;;;;;5.58;100.00;95582.06;5026389;28;20112;-74
2022/09/30 06:32:36;;;;;;;7.43;4.13;;;;;;;5.91;100.00;95591.94;5028105;28;20088;-74
2022/09/30 06:35:03;;;;;;;11.20;4.40;;;;;;;5.53;100.00;95592.09;4993978;28;20042;-74
2022/09/30 06:37:29;;;;;;;6.03;4.03;;;;;;;5.82;100.00;95584.16;5007187;28;20029;-74
2022/09/30 06:39:54;;;;;;;7.20;3.90;;;;;;;5.76;100.00;95598.59;5025638;28;20064;-74
2022/09/30 06:42:23;;;;;;;8.30;4.50;;;;;;;6.06;100.00;95600.09;5016240;28;20065;-74
2022/09/30 06:44:50;;;;;;;6.97;4.17;;;;;;;6.58;100.00;95589.03;5013067;28;20030;-74
2022/09/30 06:47:16;;;;;;;9.00;4.47;;;;;;;6.66;100.00;95596.91;5022100;28;20406;-74
2022/09/30 06:49:42;;;;;;;7.00;4.93;;;;;;;7.30;100.00;95594.91;5008266;28;20087;-74
2022/09/30 06:52:11;;;;;;;6.27;3.73;;;;;;;8.46;100.00;95584.75;5021867;28;20025;-74
2022/09/30 06:54:38;;;;;;;6.50;4.07;;;;;;;8.40;100.00;95580.16;5008871;28;20549;-74
2022/09/30 06:57:04;;;;;;;8.80;5.17;;;;;;;8.84;100.00;95585.91;5024408;28;20394;-74
2022/09/30 06:59:30;;;;;;;6.17;4.03;;;;;;;8.45;100.00;95596.19;5011174;28;20125;-74
2022/09/30 07:01:56;;;;;;;6.37;4.30;;;;;;;8.72;100.00;95590.66;5023246;28;20038;-75
2022/09/30 07:04:22;;;;;;;7.03;4.87;;;;;;;9.13;100.00;95590.63;5013667;28;20519;-74
2022/09/30 07:06:48;;;;;;;7.40;4.60;;;;;;;9.25;100.00;95596.34;5016233;28;20430;-74
2022/09/30 07:09:13;;;;;;;6.83;4.30;;;;;;;9.97;100.00;95596.31;5017856;28;20064;-75
2022/09/30 07:11:39;;;;;;;7.50;4.33;;;;;;;9.39;100.00;95600.13;5044322;28;20064;-74
2022/09/30 07:14:05;;;;;;;8.30;4.60;;;;;;;10.05;100.00;95608.59;5039023;28;20113;-74
2022/09/30 07:16:33;;;;;;;9.90;4.47;;;;;;;9.79;100.00;95608.84;5020672;28;20052;-74
2022/09/30 07:19:00;;;;;;;9.20;4.93;;;;;;;8.80;100.00;95623.91;5024749;28;20033;-75
2022/09/30 07:21:26;;;;;;;8.10;5.17;;;;;;;8.72;100.00;95626.56;5027580;28;20033;-74
2022/09/30 07:23:53;;;;;;;8.03;4.43;;;;;;;9.45;100.00;95625.66;4996242;28;20038;-74
2022/09/30 07:26:21;;;;;;;7.87;4.80;;;;;;;9.83;100.00;95623.28;5018914;28;20030;-77
2022/09/30 07:28:48;;;;;;;7.97;4.93;;;;;;;10.12;100.00;95622.66;5025584;28;20072;-75
2022/09/30 07:31:22;;;;;;;10.07;7.37;;;;;;;9.60;100.00;95620.56;5013624;28;20102;-75
2022/09/30 07:33:50;;;;;;;10.37;6.33;;;;;;;10.14;100.00;95615.44;5021571;28;20660;-74
2022/09/30 07:36:17;;;;;;;8.00;5.03;;;;;;;9.96;100.00;95613.06;5019520;28;20429;-75
2022/09/30 07:38:45;;;;;;;7.33;4.63;;;;;;;10.14;100.00;95620.69;4996733;28;20468;-74
2022/09/30 07:41:16;;;;;;;10.07;4.90;;;;;;;9.82;100.00;95624.25;5035673;28;20481;-74
2022/09/30 07:43:45;;;;;;;10.90;4.80;;;;;;;10.15;100.00;95628.41;5026558;28;20075;-75
2022/09/30 07:46:16;;;;;;;10.80;5.87;;;;;;;10.43;100.00;95627.13;5045188;28;20037;-75
2022/09/30 07:48:50;;;;;;;9.23;6.00;;;;;;;10.36;100.00;95629.63;5009116;28;20065;-74
2022/09/30 07:51:33;;;;;;;7.17;4.37;;;;;;;10.05;100.00;95638.28;5017387;28;20038;-74
2022/09/30 07:54:12;;;;;;;8.40;5.03;;;;;;;9.98;100.00;95642.59;5036829;28;20160;-74
2022/09/30 07:56:38;;;;;;;8.70;5.50;;;;;;;9.93;100.00;95644.13;5023936;28;20034;-74
2022/09/30 07:59:05;;;;;;;8.17;4.70;;;;;;;10.09;100.00;95650.13;5001148;28;20037;-74
2022/09/30 08:01:31;;;;;;;7.53;5.00;;;;;;;10.29;100.00;95650.53;5045785;28;20037;-75
2022/09/30 08:04:00;;;;;;;8.40;4.70;;;;;;;9.87;100.00;95651.66;5019839;28;20406;-75
2022/09/30 08:06:28;;;;;;;8.23;4.70;;;;;;;10.31;100.00;95653.00;5040902;28;20065;-75
2022/09/30 08:08:56;;;;;;;9.50;5.23;;;;;;;10.53;100.00;95657.50;5010228;28;20037;-75
2022/09/30 08:11:22;;;;;;;9.30;5.13;;;;;;;10.88;100.00;95651.84;5029905;28;20386;-75
2022/09/30 08:13:53;;;;;;;8.60;4.83;;;;;;;11.19;100.00;95668.38;5015076;28;20440;-75
2022/09/30 08:16:20;;;;;;;10.20;6.03;;;;;;;11.87;100.00;95645.56;5031875;28;20047;-75
2022/09/30 08:18:46;;;;;;;8.20;5.23;;;;;;;11.79;100.00;95650.88;4998491;28;20029;-76
2022/09/30 08:21:13;;;;;;;7.90;5.50;;;;;;;12.28;100.00;95663.53;5027789;28;20072;-76
2022/09/30 08:23:39;;;;;;;7.80;4.87;;;;;;;12.35;100.00;95659.16;5029635;28;20049;-76
2022/09/30 08:26:08;;;;;;;12.87;9.90;;;;;;;11.88;100.00;95663.00;5029493;28;20045;-74
2022/09/30 08:28:35;;;;;;;11.40;7.07;;;;;;;11.72;100.00;95663.16;5017326;28;20053;-75
2022/09/30 08:31:10;;;;;;;7.40;5.10;;;;;;;11.78;100.00;95665.88;5021434;28;20391;-76
2022/09/30 08:33:36;;;;;;;7.90;5.33;;;;;;;11.57;100.00;95671.84;5020553;28;20037;-76
2022/09/30 08:36:06;;;;;;;8.20;5.30;;;;;;;11.68;100.00;95669.78;5015876;28;20030;-76
2022/09/30 08:38:33;;;;;;;23.63;16.93;;;;;;;11.68;100.00;95672.41;5034544;28;20028;-74
2022/09/30 08:41:37;;;;;;;31.83;23.27;;;;;;;11.54;100.00;95677.47;5036730;28;20116;-75
2022/09/30 08:44:18;;;;;;;8.13;5.93;;;;;;;11.78;100.00;95684.31;5047834;28;20038;-75
2022/09/30 08:46:48;;;;;;;6.47;5.00;;;;;;;11.66;100.00;95684.94;5029304;28;20041;-75
2022/09/30 08:49:38;;;;;;;7.47;4.70;;;;;;;11.34;100.00;95694.75;5029316;28;20146;-75
2022/09/30 08:52:11;;;;;;;7.77;5.10;;;;;;;11.64;100.00;95695.66;5021157;28;20056;-76
2022/09/30 08:54:44;;;;;;;9.13;6.13;;;;;;;11.77;100.00;95681.88;5005324;28;20508;-75
2022/09/30 08:57:11;;;;;;;8.93;5.00;;;;;;;12.01;100.00;95684.28;5008565;28;20034;-75
2022/09/30 09:00:04;;;;;;;9.30;5.77;;;;;;;11.92;100.00;95688.00;5021710;28;20564;-75
2022/09/30 09:02:33;;;;;;;11.73;7.47;;;;;;;12.50;100.00;95688.13;5010611;28;20091;-76
2022/09/30 09:05:05;;;;;;;20.87;14.33;;;;;;;12.11;100.00;95691.09;5018628;28;20030;-74
2022/09/30 09:07:53;;;;;;;8.87;6.17;;;;;;;12.22;100.00;95693.28;5017447;28;20061;-75
2022/09/30 09:10:30;;;;;;;13.20;8.33;;;;;;;12.31;100.00;95686.91;5023976;28;20033;-75
2022/09/30 09:13:08;;;;;;;8.53;6.00;;;;;;;12.57;100.00;95688.22;5004883;28;20124;-76
2022/09/30 09:15:51;;;;;;;9.97;7.13;;;;;;;12.76;100.00;95692.91;5026363;28;20055;-76
2022/09/30 09:18:41;;;;;;;20.77;14.93;;;;;;;12.50;100.00;95690.78;5017215;28;20041;-76
2022/09/30 09:21:25;;;;;;;9.40;6.33;;;;;;;11.89;100.00;95698.06;5020742;28;20096;-76
2022/09/30 09:23:55;;;;;;;8.97;6.47;;;;;;;12.36;100.00;95700.34;5032646;28;20116;-76
2022/09/30 09:26:22;;;;;;;8.13;6.27;;;;;;;12.78;100.00;95696.19;5025556;28;20134;-76
2022/09/30 09:28:51;;;;;;;8.80;6.53;;;;;;;13.67;100.00;95685.25;5023775;28;20034;-76
2022/09/30 09:31:19;;;;;;;8.20;6.03;;;;;;;13.99;100.00;95683.06;5024023;28;20079;-76
2022/09/30 09:33:46;;;;;;;8.43;6.00;;;;;;;14.47;100.00;95685.75;5018078;28;20030;-76
2022/09/30 09:36:36;;;;;;;8.77;5.65;;;;;;;13.38;100.00;95692.38;5014576;28;20039;-76
2022/09/30 09:39:38;;;;;;;8.73;5.93;;;;;;;13.33;100.00;95693.94;5029371;28;20406;-75
2022/09/30 09:42:48;;;;;;;9.15;6.43;;;;;;;12.52;100.00;95701.16;5032184;28;20096;-76
2022/09/30 09:45:40;;;;;;;8.80;5.80;;;;;;;11.95;100.00;95703.44;5040110;28;20050;-76
2022/09/30 09:48:12;;;;;;;11.30;7.17;;;;;;;12.84;100.00;95697.25;5026695;28;20053;-76
2022/09/30 09:51:02;;;;;;;9.43;7.00;;;;;;;12.63;100.00;95700.69;5027384;28;20025;-76
2022/09/30 09:53:49;;;;;;;10.00;7.37;;;;;;;11.97;100.00;95706.72;5024005;28;20109;-76
2022/09/30 09:56:18;;;;;;;11.03;6.83;;;;;;;12.74;100.00;95711.59;5022687;28;20038;-75
2022/09/30 09:59:14;;;;;;;11.67;8.20;;;;;;;12.72;100.00;95707.50;5049333;28;20048;-75
2022/09/30 10:01:43;;;;;;;11.20;7.80;;;;;;;13.26;100.00;95706.25;5028580;28;20078;-75
2022/09/30 10:04:22;;;;;;;11.47;8.83;;;;;;;12.74;100.00;95713.38;5022255;28;20034;-76
2022/09/30 10:07:14;;;;;;;12.57;8.27;;;;;;;13.23;100.00;95703.97;5026584;28;20121;-76
2022/09/30 10:09:43;;;;;;;10.53;7.80;;;;;;;12.98;100.00;95715.69;5009993;28;20049;-76
2022/09/30 10:12:08;;;;;;;12.17;9.00;;;;;;;12.83;100.00;95725.47;5012698;28;20041;-76
2022/09/30 10:14:44;;;;;;;12.63;9.00;;;;;;;11.91;100.00;95733.78;5017120;28;20041;-76
2022/09/30 10:17:34;;;;;;;11.50;9.10;;;;;;;12.85;100.00;95722.66;5020060;28;20033;-76
2022/09/30 10:20:13;;;;;;;12.37;8.37;;;;;;;13.42;100.00;95717.38;5025469;28;20114;-75
2022/09/30 10:22:39;;;;;;;11.07;8.63;;;;;;;13.88;100.00;95714.31;5026086;28;20040;-76
2022/09/30 10:25:14;;;;;;;11.83;8.87;;;;;;;14.08;100.00;95718.88;5047354;28;20022;-75
2022/09/30 10:27:59;;;;;;;10.87;8.27;;;;;;;12.86;100.00;95719.81;5029831;28;20051;-75
2022/09/30 10:30:44;;;;;;;10.95;8.57;;;;;;;13.39;100.00;95720.41;4988243;28;20025;-75
2022/09/30 10:33:33;;;;;;;11.43;9.17;;;;;;;13.45;100.00;95726.75;5057835;28;20030;-76
2022/09/30 10:36:09;;;;;;;12.27;9.53;;;;;;;13.54;100.00;95732.72;5005469;28;20418;-76
2022/09/30 10:38:44;;;;;;;11.83;9.70;;;;;;;13.61;100.00;95723.00;4996432;28;20124;-78
2022/09/30 10:41:09;;;;;;;13.52;9.82;;;;;;;13.14;100.00;95732.28;5018407;28;20037;-76
2022/09/30 10:43:41;;;;;;;11.15;9.02;;;;;;;13.74;100.00;95732.88;5029706;28;20034;-76
2022/09/30 10:46:08;;;;;;;12.13;9.43;;;;;;;14.63;100.00;95730.44;5028518;28;20152;-75
2022/09/30 10:48:35;;;;;;;10.55;7.82;;;;;;;13.86;100.00;95732.16;5002933;28;20034;-76
2022/09/30 10:51:02;;;;;;;11.40;7.43;;;;;;;13.83;100.00;95731.75;5047022;28;20080;-75
2022/09/30 10:53:32;;;;;;;12.82;7.32;;;;;;;13.91;100.00;95735.03;5023039;28;20056;-75
2022/09/30 10:55:59;;;;;;;11.60;7.10;;;;;;;14.57;100.00;95726.72;5030329;28;20089;-76
2022/09/30 10:58:47;;;;;;;9.15;5.68;;;;;;;13.70;100.00;95742.19;5016031;28;20068;-76
2022/09/30 11:01:45;;;;;;;8.27;6.32;;;;;;;13.85;100.00;95740.31;5057580;28;20043;-76
2022/09/30 11:04:23;;;;;;;11.95;6.93;;;;;;;13.98;100.00;95750.13;4994034;28;20045;-76
2022/09/30 11:06:53;;;;;;;10.10;7.28;;;;;;;14.33;100.00;95743.88;5014137;28;20033;-76
2022/09/30 11:09:33;;;;;;;9.05;6.53;;;;;;;14.87;100.00;95739.69;5033465;28;20117;-75
2022/09/30 11:12:07;;;;;;;9.23;6.32;;;;;;;14.14;100.00;95736.63;5011381;28;20124;-76
2022/09/30 11:14:44;;;;;;;10.00;5.65;;;;;;;13.93;100.00;95744.63;5014855;28;20030;-76
2022/09/30 11:17:27;;;;;;;9.05;4.72;;;;;;;14.05;100.00;95740.44;5030870;28;20108;-76
2022/09/30 11:20:18;;;;;;;7.97;5.68;;;;;;;14.37;100.00;95750.41;5009265;28;20032;-76
2022/09/30 11:23:03;;;;;;;8.38;5.57;;;;;;;14.69;100.00;95742.03;5020753;28;20030;-76
2022/09/30 11:25:55;;;;;;;11.20;5.88;;;;;;;14.67;100.00;95736.97;5020614;28;20041;-76
2022/09/30 11:28:23;;;;;;;9.73;6.78;;;;;;;14.21;100.00;95740.13;5023536;28;20033;-75
2022/09/30 11:31:01;;;;;;;9.80;6.00;;;;;;;13.74;100.00;95749.56;5022056;28;20551;-76
2022/09/30 11:33:45;;;;;;;11.10;7.10;;;;;;;14.14;100.00;95744.56;5007216;28;20124;-76
2022/09/30 11:36:17;;;;;;;8.75;5.90;;;;;;;13.43;100.00;95747.25;5021627;28;20048;-75
2022/09/30 11:39:10;;;;;;;9.43;5.70;;;;;;;14.12;100.00;95736.03;5019665;28;20040;-75
2022/09/30 11:41:41;;;;;;;9.75;6.05;;;;;;;14.03;100.00;95737.19;5054565;28;20034;-76
2022/09/30 11:44:18;;;;;;;11.07;6.03;;;;;;;14.21;100.00;95734.84;5024262;28;20029;-76
2022/09/30 11:46:50;;;;;;;7.90;5.30;;;;;;;14.89;100.00;95731.53;5026784;28;20037;-76
2022/09/30 11:49:27;;;;;;;12.82;6.53;;;;;;;14.68;100.00;95730.66;5020472;28;20092;-76
2022/09/30 11:52:23;;;;;;;15.55;5.85;;;;;;;14.83;100.00;95733.97;5021058;28;20040;-76